首页
METAR-TAF:

METAR-TAF

机场 :

迈阿密, 佛罗里达州, 美国

邁亞密國際機場

纬度: 25-47-26N, 经度: 080-18-59W, 海拔: 3米

当前天气观测

该预报发布于50分钟前的05:53 UTC
风速6节,风向北转西北
温度 17°C
湿度 72%
气压 1023 hPa
能見度: 16.1公里
少量云层高于3200英尺
散云层高于4000英尺
散云层高于18000英尺
散云层高于25000英尺

METAR: KMIA 200553Z 34006KT 10SM FEW032 SCT040 SCT180 SCT250 17/12 A3022 RMK AO2 SLP233 T01720122 10194 20172 58007

时间: 01:43 (06:43 UTC)

预报

该预报发布于1小时和2分钟前的05:41 UTC
预报有效从20日的 06点(UTC)到 21日的 12点(UTC)
风速节,风向
能見度: 10公里
散云层高于3500英尺
散云层高于25000英尺
从 20日的 1500点(UTC)
风速9节,风向
能見度: 10公里
散云层高于3500英尺
多云层高于6000英尺
从 20日的 2200点(UTC)
风速5节,风向东北
能見度: 10公里
散云层高于3500英尺

TAF: KMIA 200541Z 2006/2112 00000KT P6SM SCT035 SCT250 FM201500 08009KT P6SM SCT035 BKN060 FM202200 04005KT P6SM SCT035

超过4000个机场的气象观测和天气预报(METAR&TAF报告)。

可查询的气象台以黄色和红色小点在地图上表示。

将鼠标移到小点上方,可查看气象台名称。

然后点击查看天气观测和预报。

如需切换地图:点击带黑十字的绿色按钮放大地图;点击带横线的绿色按钮缩小地图;或者点击绿色箭头查看邻近地区的地图。


METAR-TAF: